Iola, KS

10:33 PM CST on February 12, 2016 (GMT -0600)
KIKS and KIOL Radio | | Change Station
CLOSE
Current Station
Personal Weather Station
Location: Iola, KS
Elevation: 968 ft
Nearby Weather Stations

Elev 968 ft 37.90 °N, 95.41 °W | Updated 12 seconds ago

Overcast
Overcast
29.8 °F
Feels Like 25 °F
N
4.9
Wind Variable Wind from NNW
Gusts 7.4 mph

Today
High -- | Low -- °F
--% Chance of Precip.
Yesterday
High -- | Low -- °F
Precip. -- in
Pressure 30.56 in
Visibility 10.0 miles
Clouds Overcast 12000 ft
Windchill 25 °F
Dew Point 11 °F
Humidity 44%
Rainfall 0.00 in
Snow Depth Not available.
7:15 AM 5:56 PM
Waxing Crescent, 27% visible
METAR KCNU 130352Z AUTO 02009KT 10SM OVC120 00/M10 A3054 RMK AO2 SLP349 T00001100
Pressure 30.56 in
Visibility 10.0 miles
Clouds Overcast 12000 ft
Windchill 25 °F
Dew Point 11 °F
Humidity 44%
Rainfall 0.00 in
Snow Depth Not available.
7:15 AM 5:56 PM
Waxing Crescent, 27% visible
METAR KCNU 130352Z AUTO 02009KT 10SM OVC120 00/M10 A3054 RMK AO2 SLP349 T00001100

10-Day Weather Forecast

Almanac

Astronomy

Feb. 12, 2016 Rise Set
Actual Time
Civil Twilight
Nautical Twilight
Astronomical Twilight
Moon
Length of Visible Light
Length of Day
Tomorrow will be .
, % of the Moon is Illuminated

Today's Extremes

State Highs State Lows

Community

WunderPhotos

Upload Photos

1,892,501 photos uploaded!

WunderBlog® & News

Nearby

Air Quality

  Air Quality AQ Index Pollutant
Not available.

Snow Depth

Station Depth Elevation

Earthquake Activity

City Distance Mag. Time & Date
Minimum magnitude displayed is 2.5.

Coastal Water Temperatures

Place Temperature

Stations

Nearby Weather Stations

Station Location Temp. Windchill Dew Point Humidity Wind Precip. Elev Updated Type
                   

Watches & Warnings

There are currently no watches in effect.